Time,TemperatureF,DewpointF,PressureIn,WindDirection,WindDirectionDegrees,WindSpeedMPH,WindSpeedGustMPH,Humidity,HourlyPrecipIn,Conditions,Clouds,dailyrainin,SoftwareType,DateUTC
2013-06-08 00:03:00,66.0,60.0,29.79,East,94,0.0,0.0,81,-99.99,,,-99.99,,2013-06-08 04:03:00,
2013-06-08 00:23:00,66.0,60.0,29.79,NE,41,1.0,0.0,82,-99.99,,,-99.99,,2013-06-08 04:23:00,
2013-06-08 01:22:00,65.0,59.0,29.80,East,86,1.0,0.0,81,-99.99,,,-99.99,,2013-06-08 05:22:00,
2013-06-08 01:32:00,65.0,59.0,29.79,ESE,111,1.0,0.0,81,-99.99,,,-99.99,,2013-06-08 05:32:00,
2013-06-08 02:02:00,64.0,58.0,29.80,NNE,25,2.0,0.0,82,-99.99,,,-99.99,,2013-06-08 06:02:00,
2013-06-08 02:22:00,64.0,58.0,29.80,East,85,0.0,0.0,82,-99.99,,,-99.99,,2013-06-08 06:22:00,
2013-06-08 02:53:00,63.0,58.0,29.80,East,79,2.0,0.0,84,-99.99,,,-99.99,,2013-06-08 06:53:00,
2013-06-08 03:02:00,63.0,58.0,29.80,East,85,0.0,0.0,84,-99.99,,,-99.99,,2013-06-08 07:02:00,
2013-06-08 03:32:00,63.0,58.0,29.80,ESE,105,0.0,0.0,84,-99.99,,,-99.99,,2013-06-08 07:32:00,
2013-06-08 04:02:00,64.0,58.0,29.81,ENE,71,0.0,0.0,81,-99.99,,,-99.99,,2013-06-08 08:02:00,
2013-06-08 04:22:00,63.0,58.0,29.81,ENE,71,2.0,0.0,84,-99.99,,,-99.99,,2013-06-08 08:22:00,
2013-06-08 04:32:00,63.0,59.0,29.81,ENE,71,0.0,0.0,86,-99.99,,,-99.99,,2013-06-08 08:32:00,
2013-06-08 05:22:00,62.0,58.0,29.83,East,96,0.0,0.0,88,-99.99,,,-99.99,,2013-06-08 09:22:00,
2013-06-08 05:33:00,62.0,58.0,29.83,ESE,117,1.0,0.0,88,-99.99,,,-99.99,,2013-06-08 09:33:00,
2013-06-08 05:53:00,62.0,59.0,29.83,East,82,0.0,0.0,89,-99.99,,,-99.99,,2013-06-08 09:53:00,
2013-06-08 06:22:00,62.0,59.0,29.84,NW,317,1.0,0.0,90,-99.99,,,-99.99,,2013-06-08 10:22:00,
2013-06-08 06:33:00,62.0,59.0,29.85,ESE,114,1.0,0.0,90,-99.99,,,-99.99,,2013-06-08 10:33:00,
2013-06-08 06:52:00,63.0,59.0,29.87,SE,141,0.0,0.0,88,-99.99,,,-99.99,,2013-06-08 10:52:00,
2013-06-08 07:03:00,63.0,59.0,29.88,NE,39,2.0,0.0,88,-99.99,,,-99.99,,2013-06-08 11:03:00,
2013-06-08 07:22:00,63.0,60.0,29.88,East,80,2.0,0.0,89,-99.99,,,-99.99,,2013-06-08 11:22:00,
2013-06-08 07:52:00,62.0,60.0,29.91,ESE,115,0.0,0.0,92,-99.99,,,-99.99,,2013-06-08 11:52:00,
2013-06-08 08:02:00,62.0,60.0,29.91,ESE,115,0.0,0.0,92,-99.99,,,-99.99,,2013-06-08 12:02:00,
2013-06-08 08:32:00,61.0,60.0,29.88,NNE,13,0.0,0.0,95,-99.99,,,-99.99,,2013-06-08 12:32:00,
2013-06-08 08:42:00,61.0,60.0,29.88,NNE,13,0.0,0.0,95,-99.99,,,-99.99,,2013-06-08 12:42:00,
2013-06-08 08:52:00,61.0,60.0,29.91,NE,39,0.0,0.0,96,-99.99,,,-99.99,,2013-06-08 12:52:00,
2013-06-08 09:02:00,61.0,60.0,29.91,NE,39,0.0,0.0,96,-99.99,,,-99.99,,2013-06-08 13:02:00,
2013-06-08 09:12:00,61.0,60.0,29.91,NE,39,0.0,0.0,96,-99.99,,,-99.99,,2013-06-08 13:12:00,
2013-06-08 09:22:00,61.0,60.0,29.91,NE,39,0.0,0.0,96,-99.99,,,-99.99,,2013-06-08 13:22:00,
2013-06-08 09:32:00,62.0,60.0,29.92,ESE,114,0.0,0.0,94,-99.99,,,-99.99,,2013-06-08 13:32:00,
2013-06-08 09:53:00,63.0,62.0,29.92,SE,124,1.0,0.0,95,-99.99,,,-99.99,,2013-06-08 13:53:00,
2013-06-08 10:02:00,64.0,62.0,29.92,NE,35,2.0,0.0,92,-99.99,,,-99.99,,2013-06-08 14:02:00,
2013-06-08 10:22:00,65.0,61.0,29.93,ESE,109,1.0,0.0,87,-99.99,,,-99.99,,2013-06-08 14:22:00,
2013-06-08 10:52:00,67.0,62.0,29.93,NNE,27,0.0,0.0,84,-99.99,,,-99.99,,2013-06-08 14:52:00,
2013-06-08 11:02:00,68.0,62.0,29.93,South,170,0.0,0.0,81,-99.99,,,-99.99,,2013-06-08 15:02:00,
2013-06-08 11:32:00,69.0,61.0,29.94,East,84,0.0,0.0,77,-99.99,,,-99.99,,2013-06-08 15:32:00,
2013-06-08 11:43:00,69.0,61.0,29.94,East,84,0.0,0.0,77,-99.99,,,-99.99,,2013-06-08 15:43:00,
2013-06-08 11:53:00,71.0,61.0,29.94,SE,142,0.0,0.0,70,-99.99,,,-99.99,,2013-06-08 15:53:00,
2013-06-08 12:12:00,71.0,61.0,29.94,SE,142,0.0,0.0,70,-99.99,,,-99.99,,2013-06-08 16:12:00,
2013-06-08 12:23:00,73.0,60.0,29.95,East,94,1.0,0.0,63,-99.99,,,-99.99,,2013-06-08 16:23:00,
2013-06-08 12:53:00,75.0,58.0,29.95,ENE,68,1.0,0.0,55,-99.99,,,-99.99,,2013-06-08 16:53:00,
2013-06-08 13:02:00,76.0,57.0,29.94,SSE,159,0.0,0.0,52,-99.99,,,-99.99,,2013-06-08 17:02:00,
2013-06-08 13:23:00,77.0,60.0,29.94,SSE,159,0.0,0.0,55,-99.99,,,-99.99,,2013-06-08 17:23:00,
2013-06-08 13:52:00,80.0,62.0,29.93,NNE,18,0.0,0.0,55,-99.99,,,-99.99,,2013-06-08 17:52:00,
2013-06-08 14:02:00,80.0,62.0,29.93,NNW,345,0.0,0.0,54,-99.99,,,-99.99,,2013-06-08 18:02:00,
2013-06-08 14:22:00,81.0,63.0,29.93,East,86,1.0,0.0,54,-99.99,,,-99.99,,2013-06-08 18:22:00,
2013-06-08 14:32:00,81.0,63.0,29.93,ESE,115,2.0,0.0,54,-99.99,,,-99.99,,2013-06-08 18:32:00,
2013-06-08 14:52:00,82.0,63.0,29.93,North,352,1.0,0.0,53,-99.99,,,-99.99,,2013-06-08 18:52:00,
2013-06-08 15:03:00,82.0,61.0,29.93,NNW,342,3.0,0.0,49,-99.99,,,-99.99,,2013-06-08 19:03:00,
2013-06-08 15:22:00,82.0,61.0,29.92,NNW,335,1.0,0.0,49,-99.99,,,-99.99,,2013-06-08 19:22:00,
2013-06-08 15:32:00,83.0,61.0,29.93,NNE,33,1.0,0.0,47,-99.99,,,-99.99,,2013-06-08 19:32:00,
2013-06-08 15:53:00,84.0,62.0,29.92,ENE,75,1.0,0.0,47,-99.99,,,-99.99,,2013-06-08 19:53:00,
2013-06-08 16:02:00,84.0,63.0,29.92,NE,34,2.0,0.0,49,-99.99,,,-99.99,,2013-06-08 20:02:00,
2013-06-08 16:53:00,84.0,63.0,29.92,NE,35,0.0,0.0,49,-99.99,,,-99.99,,2013-06-08 20:53:00,
2013-06-08 17:22:00,84.0,63.0,29.92,ESE,113,0.0,0.0,49,-99.99,,,-99.99,,2013-06-08 21:22:00,
2013-06-08 17:33:00,86.0,64.0,29.93,North,7,0.0,0.0,48,-99.99,,,-99.99,,2013-06-08 21:33:00,
2013-06-08 17:53:00,85.0,63.0,29.93,ENE,70,0.0,0.0,48,-99.99,,,-99.99,,2013-06-08 21:53:00,
2013-06-08 18:02:00,85.0,63.0,29.93,North,360,1.0,0.0,48,-99.99,,,-99.99,,2013-06-08 22:02:00,
2013-06-08 18:23:00,86.0,62.0,29.93,North,352,2.0,0.0,45,-99.99,,,-99.99,,2013-06-08 22:23:00,
2013-06-08 18:33:00,86.0,63.0,29.94,NNW,339,3.0,0.0,47,-99.99,,,-99.99,,2013-06-08 22:33:00,
2013-06-08 19:02:00,83.0,62.0,29.94,NW,318,1.0,0.0,50,-99.99,,,-99.99,,2013-06-08 23:02:00,
2013-06-08 19:22:00,84.0,66.0,29.95,NE,39,1.0,0.0,55,-99.99,,,-99.99,,2013-06-08 23:22:00,
2013-06-08 19:52:00,80.0,66.0,29.96,South,190,1.0,0.0,63,-99.99,,,-99.99,,2013-06-08 23:52:00,
2013-06-08 20:02:00,78.0,66.0,29.96,South,190,0.0,0.0,67,-99.99,,,-99.99,,2013-06-09 00:02:00,
2013-06-08 20:12:00,78.0,66.0,29.96,South,190,0.0,0.0,67,-99.99,,,-99.99,,2013-06-09 00:12:00,
2013-06-08 20:22:00,76.0,66.0,29.97,South,190,0.0,0.0,71,-99.99,,,-99.99,,2013-06-09 00:22:00,
2013-06-08 20:32:00,76.0,67.0,29.98,South,190,0.0,0.0,73,-99.99,,,-99.99,,2013-06-09 00:32:00,
2013-06-08 20:42:00,76.0,67.0,29.98,South,190,0.0,0.0,73,-99.99,,,-99.99,,2013-06-09 00:42:00,
2013-06-08 20:52:00,74.0,66.0,29.98,South,190,0.0,0.0,75,-99.99,,,-99.99,,2013-06-09 00:52:00,
2013-06-08 21:02:00,74.0,66.0,29.98,South,190,0.0,0.0,75,-99.99,,,-99.99,,2013-06-09 01:02:00,
2013-06-08 21:12:00,74.0,66.0,29.98,South,190,0.0,0.0,75,-99.99,,,-99.99,,2013-06-09 01:12:00,
2013-06-08 21:22:00,72.0,64.0,29.99,South,190,0.0,0.0,77,-99.99,,,-99.99,,2013-06-09 01:22:00,
2013-06-08 21:32:00,72.0,64.0,29.99,South,190,0.0,0.0,77,-99.99,,,-99.99,,2013-06-09 01:32:00,
2013-06-08 21:42:00,72.0,64.0,29.99,South,190,0.0,0.0,77,-99.99,,,-99.99,,2013-06-09 01:42:00,
2013-06-08 21:52:00,71.0,65.0,30.01,South,190,0.0,0.0,81,-99.99,,,-99.99,,2013-06-09 01:52:00,
2013-06-08 22:02:00,70.0,65.0,30.01,South,190,0.0,0.0,83,-99.99,,,-99.99,,2013-06-09 02:02:00,
2013-06-08 22:12:00,70.0,65.0,30.01,South,190,0.0,0.0,83,-99.99,,,-99.99,,2013-06-09 02:12:00,
2013-06-08 22:22:00,69.0,65.0,30.02,South,190,0.0,0.0,86,-99.99,,,-99.99,,2013-06-09 02:22:00,
2013-06-08 22:32:00,69.0,65.0,30.03,South,190,0.0,0.0,86,-99.99,,,-99.99,,2013-06-09 02:32:00,
2013-06-08 22:42:00,69.0,65.0,30.03,South,190,0.0,0.0,86,-99.99,,,-99.99,,2013-06-09 02:42:00,
2013-06-08 22:52:00,69.0,65.0,30.03,South,190,0.0,0.0,86,-99.99,,,-99.99,,2013-06-09 02:52:00,
2013-06-08 23:02:00,68.0,64.0,30.05,South,190,0.0,0.0,88,-99.99,,,-99.99,,2013-06-09 03:02:00,
2013-06-08 23:12:00,68.0,64.0,30.05,South,190,0.0,0.0,88,-99.99,,,-99.99,,2013-06-09 03:12:00,
2013-06-08 23:22:00,68.0,65.0,30.05,South,190,0.0,0.0,89,-99.99,,,-99.99,,2013-06-09 03:22:00,
2013-06-08 23:33:00,68.0,65.0,30.05,South,190,0.0,0.0,90,-99.99,,,-99.99,,2013-06-09 03:33:00,
2013-06-08 23:43:00,68.0,65.0,30.05,South,190,0.0,0.0,90,-99.99,,,-99.99,,2013-06-09 03:43:00,
2013-06-08 23:53:00,67.0,64.0,30.05,South,190,0.0,0.0,91,-99.99,,,-99.99,,2013-06-09 03:53:00,